Time;durP1;ratioP1;P1;durP2;ratioP2;P2;SDS_P1;SDS_P2;PMS_P1;PMS_P2;Temp;Humidity;BMP_temperature;BMP_pressure;BME280_temperature;BME280_humidity;BME280_pressure;Samples;Min_cycle;Max_cycle;Signal;HPM_P1;HPM_P2
2021/04/05 00:00:46;;;;;;;1.93;1.77;;;8.10;99.90;;;;;;4955631;28;20643;-87
2021/04/05 00:03:14;;;;;;;8.30;3.47;;;8.10;99.90;;;;;;4952136;28;20232;-87
2021/04/05 00:05:40;;;;;;;3.57;2.20;;;8.00;99.90;;;;;;4953238;28;20238;-87
2021/04/05 00:08:06;;;;;;;4.33;2.53;;;8.00;99.90;;;;;;4970860;28;20208;-86
2021/04/05 00:10:42;;;;;;;10.53;2.90;;;8.00;99.90;;;;;;4972241;28;20275;-88
2021/04/05 00:13:13;;;;;;;12.27;3.57;;;8.10;99.90;;;;;;4987322;28;20239;-87
2021/04/05 00:15:39;;;;;;;5.13;2.13;;;8.00;99.90;;;;;;4971040;28;20719;-88
2021/04/05 00:18:05;;;;;;;5.33;2.93;;;8.10;99.90;;;;;;4973309;28;20224;-87
2021/04/05 00:20:36;;;;;;;2.63;2.23;;;8.00;99.90;;;;;;4977419;28;20949;-88
2021/04/05 00:23:03;;;;;;;11.83;3.50;;;8.00;99.90;;;;;;4976242;28;20254;-88
2021/04/05 00:25:29;;;;;;;6.67;2.53;;;8.00;99.90;;;;;;4992720;28;20629;-89
2021/04/05 00:27:55;;;;;;;8.60;3.60;;;8.00;99.90;;;;;;4977935;28;20188;-90
2021/04/05 00:30:24;;;;;;;4.67;2.27;;;8.00;99.90;;;;;;4975421;28;20287;-88
2021/04/05 00:32:51;;;;;;;1.40;1.27;;;8.00;99.90;;;;;;4990794;28;20212;-88
2021/04/05 00:35:22;;;;;;;3.37;2.33;;;8.00;99.90;;;;;;4975051;28;21318;-90
2021/04/05 00:37:49;;;;;;;2.83;2.00;;;8.00;99.90;;;;;;4988015;28;20286;-87
2021/04/05 00:40:18;;;;;;;4.87;3.43;;;8.00;99.90;;;;;;4989421;28;20214;-88
2021/04/05 00:42:44;;;;;;;4.60;4.10;;;8.00;99.90;;;;;;4973160;28;20188;-88
2021/04/05 00:45:13;;;;;;;10.67;2.77;;;8.00;99.90;;;;;;4987657;28;20223;-86
2021/04/05 00:47:43;;;;;;;8.30;3.33;;;8.00;99.90;;;;;;4971391;28;20215;-88
2021/04/05 00:50:14;;;;;;;3.37;2.67;;;8.10;99.90;;;;;;4987696;28;20219;-88
2021/04/05 00:52:41;;;;;;;5.03;3.63;;;8.00;99.90;;;;;;4987814;28;20237;-87
2021/04/05 00:55:08;;;;;;;1.90;1.33;;;8.00;99.90;;;;;;4972829;28;20700;-89
2021/04/05 00:57:36;;;;;;;6.53;2.43;;;8.00;99.90;;;;;;5003172;28;20234;-89
2021/04/05 01:00:18;;;;;;;4.30;2.97;;;8.00;99.90;;;;;;5005350;28;20681;-89
2021/04/05 01:02:46;;;;;;;4.87;3.77;;;8.00;99.90;;;;;;4985461;28;20249;-87
2021/04/05 01:05:13;;;;;;;5.80;3.43;;;8.00;99.90;;;;;;4987261;28;20215;-87
2021/04/05 01:07:39;;;;;;;11.13;2.13;;;8.00;99.90;;;;;;4987102;28;20245;-88
2021/04/05 01:10:08;;;;;;;4.13;1.83;;;8.00;99.90;;;;;;4988271;28;20234;-87
2021/04/05 01:12:34;;;;;;;2.37;2.17;;;8.00;99.90;;;;;;4986304;28;20222;-87
2021/04/05 01:15:00;;;;;;;6.83;2.70;;;8.00;99.90;;;;;;4971093;28;20261;-89
2021/04/05 01:17:25;;;;;;;5.73;1.90;;;8.00;99.90;;;;;;4986846;28;20733;-88
2021/04/05 01:19:51;;;;;;;8.53;2.50;;;8.00;99.90;;;;;;4970722;28;20277;-86
2021/04/05 01:22:17;;;;;;;1.17;1.17;;;8.00;99.90;;;;;;4987322;28;20201;-89
2021/04/05 01:24:43;;;;;;;4.00;1.07;;;8.00;99.90;;;;;;4988328;28;20363;-87
2021/04/05 01:27:09;;;;;;;5.30;2.03;;;8.00;99.90;;;;;;5002640;28;20211;-87
2021/04/05 01:29:36;;;;;;;4.03;2.80;;;8.00;99.90;;;;;;4970331;28;20223;-88
2021/04/05 01:32:02;;;;;;;3.43;2.90;;;8.00;99.90;;;;;;4986748;28;20761;-89
2021/04/05 01:34:28;;;;;;;3.13;2.53;;;8.00;99.90;;;;;;4986804;28;20207;-87
2021/04/05 01:36:59;;;;;;;4.53;1.73;;;8.00;99.90;;;;;;4976449;28;20257;-87
2021/04/05 01:39:26;;;;;;;4.77;2.20;;;8.00;99.90;;;;;;5001356;28;20257;-87
2021/04/05 01:41:52;;;;;;;3.80;2.23;;;8.00;99.90;;;;;;4953696;28;20565;-87
2021/04/05 01:44:17;;;;;;;2.40;1.97;;;8.00;99.90;;;;;;4970471;28;20704;-88
2021/04/05 01:46:44;;;;;;;3.20;2.47;;;8.00;99.90;;;;;;4954098;28;20676;-86
2021/04/05 01:49:09;;;;;;;2.40;1.80;;;8.00;99.90;;;;;;4988281;28;20681;-87
2021/04/05 01:51:35;;;;;;;5.20;3.50;;;8.00;99.90;;;;;;4995738;28;20680;-87
2021/04/05 01:54:01;;;;;;;1.90;1.60;;;8.00;99.90;;;;;;5004615;28;20604;-87
2021/04/05 01:56:27;;;;;;;4.73;2.93;;;8.00;99.90;;;;;;4969421;28;20234;-87
2021/04/05 01:58:54;;;;;;;2.60;1.43;;;8.00;99.90;;;;;;4969971;28;20222;-86
2021/04/05 02:01:24;;;;;;;1.63;1.53;;;8.00;99.90;;;;;;4984174;28;20285;-88
2021/04/05 02:03:52;;;;;;;5.30;1.87;;;8.00;99.90;;;;;;5002565;28;20187;-89
2021/04/05 02:06:26;;;;;;;0.77;0.73;;;8.10;99.90;;;;;;5001031;28;20218;-87
2021/04/05 02:08:53;;;;;;;1.33;1.23;;;8.10;99.90;;;;;;5003265;28;20223;-88
2021/04/05 02:11:23;;;;;;;16.50;3.50;;;8.00;99.90;;;;;;4985934;28;20229;-88
2021/04/05 02:13:51;;;;;;;7.00;3.07;;;8.10;99.90;;;;;;5004250;28;20618;-88
2021/04/05 02:16:19;;;;;;;2.33;1.80;;;8.10;99.90;;;;;;4968811;28;20422;-88
2021/04/05 02:18:46;;;;;;;3.60;1.60;;;8.00;99.90;;;;;;4987009;28;20699;-87
2021/04/05 02:21:18;;;;;;;3.73;2.10;;;8.10;99.90;;;;;;4982197;28;20224;-87
2021/04/05 02:23:46;;;;;;;1.53;1.43;;;8.00;99.90;;;;;;4981633;28;20247;-87
2021/04/05 02:26:16;;;;;;;8.80;3.07;;;8.00;99.90;;;;;;4980910;28;20342;-87
2021/04/05 02:28:47;;;;;;;4.60;3.30;;;8.10;99.90;;;;;;4985275;28;20350;-88
2021/04/05 02:31:15;;;;;;;6.30;2.50;;;8.00;99.90;;;;;;5003463;28;20184;-88
2021/04/05 02:33:46;;;;;;;5.10;2.90;;;8.00;99.90;;;;;;4997975;28;20245;-86
2021/04/05 02:36:18;;;;;;;9.43;2.63;;;8.00;99.90;;;;;;4985438;28;20310;-88
2021/04/05 02:38:46;;;;;;;0.60;0.60;;;8.00;99.90;;;;;;4994530;28;20231;-90
2021/04/05 02:41:13;;;;;;;1.70;1.17;;;8.00;99.90;;;;;;4984518;28;20223;-88
2021/04/05 02:43:40;;;;;;;1.27;1.17;;;8.00;99.90;;;;;;4970491;28;20218;-90
2021/04/05 02:46:17;;;;;;;1.40;1.30;;;7.90;99.90;;;;;;4988538;28;20175;-88
2021/04/05 02:48:46;;;;;;;3.33;3.07;;;7.40;99.90;;;;;;4989017;28;20225;-89
2021/04/05 02:51:13;;;;;;;1.93;1.50;;;7.10;99.90;;;;;;4985980;28;20223;-88
2021/04/05 02:53:51;;;;;;;0.80;0.40;;;7.00;99.90;;;;;;4985139;28;20226;-88
2021/04/05 02:56:18;;;;;;;6.70;1.10;;;6.90;99.90;;;;;;4984711;28;20231;-89
2021/04/05 02:58:46;;;;;;;4.23;0.57;;;6.90;99.90;;;;;;4978957;28;20226;-89
2021/04/05 03:01:13;;;;;;;0.10;0.10;;;6.90;99.90;;;;;;4983684;28;20183;-89
2021/04/05 03:03:40;;;;;;;5.63;1.07;;;6.80;99.90;;;;;;5005875;28;20211;-90
2021/04/05 03:06:07;;;;;;;0.97;0.60;;;6.60;99.90;;;;;;4986497;28;20707;-89
2021/04/05 03:08:33;;;;;;;0.37;0.30;;;6.30;99.90;;;;;;4984509;28;20306;-89
2021/04/05 03:11:00;;;;;;;0.30;0.30;;;6.00;99.90;;;;;;4952982;28;20242;-89
2021/04/05 03:13:29;;;;;;;1.60;0.30;;;5.90;99.90;;;;;;4967729;28;20206;-87
2021/04/05 03:15:56;;;;;;;0.30;0.30;;;5.90;99.90;;;;;;4987053;28;20215;-90
2021/04/05 03:18:23;;;;;;;0.67;0.67;;;5.80;99.90;;;;;;4977483;28;20246;-88
2021/04/05 03:20:50;;;;;;;0.20;0.20;;;5.80;99.90;;;;;;5001329;28;20559;-87
2021/04/05 03:23:16;;;;;;;0.20;0.20;;;5.90;99.90;;;;;;4984645;28;20211;-88
2021/04/05 03:25:43;;;;;;;0.23;0.23;;;5.90;99.90;;;;;;4968135;28;20254;-87
2021/04/05 03:28:10;;;;;;;0.77;0.77;;;6.00;99.90;;;;;;5004569;28;20206;-89
2021/04/05 03:30:55;;;;;;;0.20;0.20;;;5.90;99.90;;;;;;4985066;28;20210;-90
2021/04/05 03:33:28;;;;;;;0.70;0.70;;;5.70;99.90;;;;;;5000834;28;20794;-89
2021/04/05 03:36:04;;;;;;;0.30;0.30;;;5.60;99.90;;;;;;4979286;28;20231;-89
2021/04/05 03:38:31;;;;;;;1.07;0.60;;;5.50;99.90;;;;;;4984808;28;20231;-91
2021/04/05 03:41:01;;;;;;;0.97;0.50;;;5.40;99.90;;;;;;4953321;28;20226;-89
2021/04/05 03:43:35;;;;;;;5.53;0.70;;;5.20;99.90;;;;;;4984700;28;20191;-89
2021/04/05 03:46:07;;;;;;;0.20;0.20;;;4.60;99.90;;;;;;4986844;28;20187;-91
2021/04/05 03:48:38;;;;;;;0.40;0.40;;;4.50;99.90;;;;;;4984189;28;20227;-87
2021/04/05 03:51:13;;;;;;;0.20;0.20;;;4.50;99.90;;;;;;4999362;28;20221;-89
2021/04/05 03:54:06;;;;;;;0.23;0.23;;;4.60;99.90;;;;;;5001946;28;20299;-89
2021/04/05 03:56:37;;;;;;;0.27;0.27;;;4.80;99.90;;;;;;4984889;28;20223;-89
2021/04/05 03:59:08;;;;;;;0.40;0.40;;;5.10;99.90;;;;;;4984332;28;20239;-89
2021/04/05 04:01:43;;;;;;;0.40;0.40;;;5.10;99.90;;;;;;4983235;28;20223;-89
2021/04/05 04:04:14;;;;;;;0.30;0.30;;;5.10;99.90;;;;;;4999978;28;20186;-88
2021/04/05 04:06:55;;;;;;;0.30;0.30;;;5.10;99.90;;;;;;4965078;28;20247;-88
2021/04/05 04:09:24;;;;;;;0.30;0.30;;;5.10;99.90;;;;;;4978912;28;20265;-89
2021/04/05 04:11:53;;;;;;;0.30;0.30;;;5.10;99.90;;;;;;4996851;28;20255;-90
2021/04/05 04:14:19;;;;;;;0.43;0.43;;;5.10;99.90;;;;;;4978163;28;20223;-89
2021/04/05 04:16:47;;;;;;;20.73;2.77;;;5.10;99.90;;;;;;4978747;28;20254;-88
2021/04/05 04:19:14;;;;;;;2.53;0.40;;;5.20;99.90;;;;;;4978898;28;20179;-87
2021/04/05 04:21:43;;;;;;;0.30;0.30;;;5.10;99.90;;;;;;4964775;28;20706;-89
2021/04/05 04:24:10;;;;;;;0.60;0.57;;;5.00;99.90;;;;;;4989234;28;20222;-89
2021/04/05 04:26:36;;;;;;;0.30;0.30;;;4.80;99.90;;;;;;4962427;28;20318;-89
2021/04/05 04:29:03;;;;;;;4.47;1.90;;;4.60;99.90;;;;;;4982375;28;20219;-89
2021/04/05 04:31:30;;;;;;;0.40;0.40;;;4.50;99.90;;;;;;4965997;28;20202;-89
2021/04/05 04:33:55;;;;;;;0.30;0.30;;;4.40;99.90;;;;;;4983207;28;20191;-89
2021/04/05 04:36:26;;;;;;;2.20;0.73;;;4.40;99.90;;;;;;4966226;28;20215;-89
2021/04/05 04:38:56;;;;;;;0.40;0.40;;;4.30;99.90;;;;;;4983357;28;20235;-87
2021/04/05 04:41:24;;;;;;;0.40;0.40;;;4.00;99.90;;;;;;4983524;28;21087;-88
2021/04/05 04:44:10;;;;;;;0.27;0.27;;;4.10;99.90;;;;;;4983569;28;20207;-87
2021/04/05 04:46:37;;;;;;;0.30;0.30;;;4.20;99.90;;;;;;4983406;28;20254;-87
2021/04/05 04:49:05;;;;;;;0.23;0.23;;;4.30;99.90;;;;;;4984533;28;20187;-87
2021/04/05 04:51:32;;;;;;;0.40;0.40;;;4.40;99.90;;;;;;4960367;28;20559;-88
2021/04/05 04:53:59;;;;;;;0.83;0.50;;;4.10;99.90;;;;;;4967427;28;20215;-88
2021/04/05 04:56:25;;;;;;;4.33;1.97;;;4.10;99.90;;;;;;5001201;28;20223;-89
2021/04/05 04:58:51;;;;;;;0.30;0.30;;;4.10;99.90;;;;;;4967752;28;20215;-87
2021/04/05 05:01:18;;;;;;;3.40;0.43;;;4.10;99.90;;;;;;4982123;28;20193;-87
2021/04/05 05:03:52;;;;;;;0.30;0.30;;;3.90;99.90;;;;;;4986280;28;21374;-87
2021/04/05 05:06:20;;;;;;;0.30;0.30;;;3.70;99.90;;;;;;5006065;28;20278;-87
2021/04/05 05:08:46;;;;;;;0.70;0.70;;;3.60;99.90;;;;;;4972472;28;20223;-89
2021/04/05 05:11:12;;;;;;;0.63;0.57;;;3.50;99.90;;;;;;5008535;28;20238;-87
2021/04/05 05:13:38;;;;;;;0.60;0.60;;;3.40;99.90;;;;;;4966723;28;20277;-88
2021/04/05 05:16:05;;;;;;;2.10;1.10;;;3.50;99.90;;;;;;5006536;28;20667;-86
2021/04/05 05:18:32;;;;;;;2.47;0.80;;;3.60;99.90;;;;;;5003670;28;20223;-86
2021/04/05 05:21:01;;;;;;;1.60;1.13;;;3.80;99.90;;;;;;5005548;28;20219;-89
2021/04/05 05:23:28;;;;;;;0.80;0.80;;;3.90;99.90;;;;;;4995363;28;20354;-90
2021/04/05 05:25:55;;;;;;;1.50;1.33;;;4.10;99.90;;;;;;4970319;28;20223;-86
2021/04/05 05:28:23;;;;;;;0.30;0.30;;;4.20;99.90;;;;;;4954514;28;21181;-88
2021/04/05 05:30:49;;;;;;;0.50;0.50;;;4.10;99.90;;;;;;4988265;28;20191;-87
2021/04/05 05:33:15;;;;;;;3.00;1.73;;;4.20;99.90;;;;;;4984860;28;20215;-85
2021/04/05 05:35:41;;;;;;;2.63;2.53;;;4.20;99.90;;;;;;5002651;28;20227;-87
2021/04/05 05:38:07;;;;;;;0.63;0.60;;;4.30;99.90;;;;;;4969729;28;20679;-86
2021/04/05 05:40:35;;;;;;;2.63;2.00;;;4.40;99.90;;;;;;4986784;28;20227;-88
2021/04/05 05:43:19;;;;;;;3.07;1.07;;;4.30;99.90;;;;;;4988368;28;20203;-87
2021/04/05 05:45:56;;;;;;;0.97;0.60;;;4.40;99.90;;;;;;5003013;28;20281;-87
2021/04/05 05:48:45;;;;;;;1.83;1.00;;;4.40;99.90;;;;;;4986491;28;20265;-89
2021/04/05 05:51:30;;;;;;;1.03;0.87;;;4.40;99.90;;;;;;5003428;28;20273;-89
2021/04/05 05:54:02;;;;;;;0.63;0.63;;;4.30;99.90;;;;;;4987797;28;20219;-88
2021/04/05 05:57:10;;;;;;;1.70;0.83;;;4.20;99.90;;;;;;5003705;28;20219;-88
2021/04/05 06:00:00;;;;;;;2.20;1.00;;;4.10;99.90;;;;;;4993035;28;20321;-87
2021/04/05 06:02:39;;;;;;;2.30;0.87;;;4.00;99.90;;;;;;4984251;28;20219;-88
2021/04/05 06:05:14;;;;;;;1.17;0.80;;;4.00;99.90;;;;;;4994647;28;20684;-87
2021/04/05 06:08:08;;;;;;;3.77;0.87;;;3.90;99.90;;;;;;4995228;28;20223;-86
2021/04/05 06:10:47;;;;;;;2.00;0.60;;;3.90;99.90;;;;;;4994412;28;20215;-87
2021/04/05 06:13:58;;;;;;;0.97;0.70;;;3.90;99.90;;;;;;4984902;28;21014;-87
2021/04/05 06:16:33;;;;;;;1.90;0.90;;;4.00;99.90;;;;;;4974968;28;20229;-87
2021/04/05 06:18:58;;;;;;;1.70;0.60;;;4.00;99.90;;;;;;5003554;28;20187;-87
2021/04/05 06:21:50;;;;;;;5.00;0.60;;;4.10;99.90;;;;;;4984432;28;20234;-89
2021/04/05 06:24:27;;;;;;;0.40;0.40;;;4.10;99.90;;;;;;4974764;28;20238;-88
2021/04/05 06:26:56;;;;;;;6.93;0.87;;;4.10;99.90;;;;;;5001807;28;20215;-86
2021/04/05 06:29:25;;;;;;;0.30;0.30;;;4.10;99.90;;;;;;5004121;28;20207;-87
2021/04/05 06:32:06;;;;;;;0.80;0.80;;;4.00;99.90;;;;;;4985027;28;20273;-90
2021/04/05 06:34:35;;;;;;;5.37;1.33;;;3.40;99.90;;;;;;5004560;28;20257;-85
2021/04/05 06:37:10;;;;;;;0.93;0.50;;;3.30;99.90;;;;;;4998106;28;20179;-87
2021/04/05 06:39:41;;;;;;;0.87;0.50;;;3.40;99.90;;;;;;5002956;28;20859;-90
2021/04/05 06:42:33;;;;;;;0.53;0.53;;;3.10;99.90;;;;;;4985153;28;20222;-88
2021/04/05 06:45:29;;;;;;;0.50;0.50;;;2.90;99.90;;;;;;5003569;28;20242;-88
2021/04/05 06:48:33;;;;;;;0.50;0.50;;;3.00;99.90;;;;;;5003327;28;20223;-85
2021/04/05 06:51:11;;;;;;;0.60;0.60;;;3.20;99.90;;;;;;4969384;28;20218;-89
2021/04/05 06:53:59;;;;;;;4.53;0.60;;;3.30;99.90;;;;;;5002883;28;20223;-89
2021/04/05 06:56:53;;;;;;;0.40;0.40;;;3.50;99.90;;;;;;4996499;28;20296;-89
2021/04/05 06:59:45;;;;;;;0.30;0.30;;;3.70;99.90;;;;;;5002591;28;20222;-88
2021/04/05 07:02:14;;;;;;;2.27;0.63;;;3.90;99.90;;;;;;4999607;28;20273;-88
2021/04/05 07:04:48;;;;;;;0.70;0.67;;;2.90;99.90;;;;;;4980319;28;20346;-89
2021/04/05 07:07:38;;;;;;;1.70;0.73;;;2.10;99.90;;;;;;4980261;28;20191;-87
2021/04/05 07:10:09;;;;;;;0.30;0.30;;;1.90;99.90;;;;;;5003169;28;20258;-86
2021/04/05 07:13:00;;;;;;;2.57;0.63;;;1.80;99.90;;;;;;4983247;28;20215;-86
2021/04/05 07:16:09;;;;;;;0.30;0.30;;;1.70;99.90;;;;;;4980361;28;20231;-88
2021/04/05 07:19:26;;;;;;;1.13;0.77;;;1.40;99.90;;;;;;4984317;28;20243;-86
2021/04/05 07:22:12;;;;;;;0.60;0.60;;;1.30;99.90;;;;;;4874819;29;20235;-86
2021/04/05 07:25:05;;;;;;;2.37;1.03;;;1.60;99.90;;;;;;4938921;28;20235;-86
2021/04/05 07:28:08;;;;;;;3.03;0.87;;;1.80;99.90;;;;;;4981679;28;20227;-88
2021/04/05 07:30:43;;;;;;;1.60;1.27;;;1.90;99.90;;;;;;5001207;28;21147;-87
2021/04/05 07:33:23;;;;;;;1.07;1.00;;;2.00;99.90;;;;;;5002596;28;20305;-86
2021/04/05 07:36:09;;;;;;;4.73;0.70;;;2.10;99.90;;;;;;5001277;28;20258;-86
2021/04/05 07:39:02;;;;;;;0.30;0.30;;;2.20;99.90;;;;;;4993289;28;20251;-86
2021/04/05 07:41:47;;;;;;;1.60;1.20;;;2.30;99.90;;;;;;4971202;28;20315;-87
2021/04/05 07:44:40;;;;;;;0.53;0.53;;;2.30;99.90;;;;;;4973467;28;20615;-86
2021/04/05 07:47:24;;;;;;;0.63;0.63;;;2.30;99.90;;;;;;4982665;28;20220;-87
2021/04/05 07:49:52;;;;;;;0.63;0.50;;;2.40;99.90;;;;;;4974614;28;20216;-87
2021/04/05 07:52:26;;;;;;;0.80;0.80;;;2.20;99.90;;;;;;4990700;28;20192;-86
2021/04/05 07:54:52;;;;;;;1.17;0.60;;;2.40;99.90;;;;;;4973748;28;20223;-86
2021/04/05 07:57:56;;;;;;;5.60;1.57;;;3.40;99.90;;;;;;4971719;28;20224;-86
2021/04/05 08:00:48;;;;;;;3.90;0.90;;;4.00;99.90;;;;;;4971386;28;20220;-86
2021/04/05 08:03:46;;;;;;;1.30;1.30;;;4.20;99.90;;;;;;4970054;28;20307;-86
2021/04/05 08:06:14;;;;;;;1.13;0.80;;;3.50;99.90;;;;;;4943373;28;20224;-86
2021/04/05 08:08:51;;;;;;;6.30;1.73;;;3.00;99.90;;;;;;4972157;28;20222;-86
2021/04/05 08:11:38;;;;;;;0.60;0.57;;;2.30;99.90;;;;;;4970238;28;20721;-86
2021/04/05 08:14:42;;;;;;;0.50;0.40;;;2.60;99.90;;;;;;4972928;28;20772;-86
2021/04/05 08:17:37;;;;;;;2.10;1.27;;;2.90;99.90;;;;;;4971300;28;20228;-86
2021/04/05 08:20:08;;;;;;;0.57;0.57;;;2.70;99.90;;;;;;4969266;28;20227;-88
2021/04/05 08:22:59;;;;;;;1.13;0.63;;;1.80;99.90;;;;;;4972460;28;20720;-87
2021/04/05 08:25:47;;;;;;;6.13;0.90;;;2.00;99.90;;;;;;4986765;28;20212;-87
2021/04/05 08:28:57;;;;;;;3.40;1.53;;;2.30;99.90;;;;;;4971229;28;20173;-86
2021/04/05 08:32:01;;;;;;;0.80;0.80;;;2.70;99.90;;;;;;4971281;28;20192;-86
2021/04/05 08:34:46;;;;;;;7.70;1.13;;;4.00;99.90;;;;;;4970861;28;20195;-85
2021/04/05 08:37:41;;;;;;;1.23;0.70;;;4.60;99.90;;;;;;4972424;28;20208;-86
2021/04/05 08:40:23;;;;;;;0.87;0.87;;;4.70;99.90;;;;;;4966079;28;20631;-86
2021/04/05 08:42:58;;;;;;;0.87;0.87;;;5.00;99.90;;;;;;4982036;28;20244;-86
2021/04/05 08:45:34;;;;;;;1.00;0.93;;;4.20;99.90;;;;;;4967282;28;20228;-86
2021/04/05 08:48:27;;;;;;;1.27;0.73;;;3.00;99.90;;;;;;4981727;28;20307;-86
2021/04/05 08:51:03;;;;;;;1.57;0.80;;;3.30;99.90;;;;;;4963266;28;20220;-86
2021/04/05 08:53:32;;;;;;;0.30;0.30;;;2.60;99.90;;;;;;4962644;28;20220;-86
2021/04/05 08:55:59;;;;;;;0.93;0.87;;;3.10;99.90;;;;;;4963846;28;20244;-86
2021/04/05 08:58:34;;;;;;;0.67;0.50;;;4.00;99.90;;;;;;4981080;28;20177;-85
2021/04/05 09:01:04;;;;;;;0.30;0.30;;;4.70;99.90;;;;;;4965669;28;20254;-85
2021/04/05 09:03:32;;;;;;;2.70;1.80;;;5.30;99.90;;;;;;4980365;28;20232;-85
2021/04/05 09:05:59;;;;;;;3.30;1.27;;;4.70;99.90;;;;;;4965113;28;20300;-86
2021/04/05 09:08:27;;;;;;;0.70;0.70;;;4.00;99.90;;;;;;4964402;28;20635;-85
2021/04/05 09:11:02;;;;;;;2.03;1.53;;;3.70;99.90;;;;;;4979995;28;20216;-85
2021/04/05 09:13:55;;;;;;;2.60;0.57;;;4.30;99.90;;;;;;4964207;28;20630;-85
2021/04/05 09:16:24;;;;;;;1.70;0.70;;;4.60;99.90;;;;;;4980552;28;20255;-84
2021/04/05 09:19:06;;;;;;;1.83;0.90;;;5.00;99.90;;;;;;4966922;28;20248;-84
2021/04/05 09:21:50;;;;;;;0.60;0.60;;;5.30;99.90;;;;;;4953567;28;20291;-86
2021/04/05 09:24:38;;;;;;;0.37;0.37;;;5.00;99.90;;;;;;4964626;28;20208;-84
2021/04/05 09:27:19;;;;;;;0.30;0.30;;;4.80;99.90;;;;;;4980280;28;20683;-84
2021/04/05 09:30:29;;;;;;;0.27;0.27;;;4.70;99.90;;;;;;4964323;28;20480;-86
2021/04/05 09:33:03;;;;;;;0.87;0.77;;;5.10;99.90;;;;;;4964088;28;20320;-85
2021/04/05 09:35:57;;;;;;;0.90;0.50;;;4.70;99.90;;;;;;4965041;28;20231;-85
2021/04/05 09:38:51;;;;;;;2.73;0.40;;;5.00;99.90;;;;;;4972345;28;20238;-85
2021/04/05 09:41:29;;;;;;;0.40;0.40;;;4.30;99.90;;;;;;4985271;28;20289;-84
2021/04/05 09:44:29;;;;;;;0.60;0.60;;;4.80;99.90;;;;;;5003810;28;20774;-85
2021/04/05 09:47:19;;;;;;;0.40;0.40;;;5.80;99.90;;;;;;4994317;28;20577;-85
2021/04/05 09:49:59;;;;;;;0.83;0.70;;;5.10;99.90;;;;;;5000540;28;20227;-84
2021/04/05 09:52:57;;;;;;;0.50;0.50;;;4.40;99.90;;;;;;4985121;28;20579;-84
2021/04/05 09:55:33;;;;;;;3.70;0.53;;;5.10;99.90;;;;;;5002645;28;20222;-85
2021/04/05 09:58:06;;;;;;;1.83;0.80;;;4.80;99.90;;;;;;5003230;28;20195;-86
2021/04/05 10:00:33;;;;;;;0.67;0.43;;;4.90;99.90;;;;;;4985863;28;20219;-84
2021/04/05 10:03:19;;;;;;;1.53;0.90;;;4.40;99.90;;;;;;4968723;28;20583;-86
2021/04/05 10:05:47;;;;;;;2.03;1.97;;;4.30;99.90;;;;;;5003992;28;20215;-85
2021/04/05 10:08:24;;;;;;;1.10;0.80;;;4.30;99.90;;;;;;4981177;28;20219;-85
2021/04/05 10:10:52;;;;;;;4.53;1.13;;;4.30;99.90;;;;;;4982696;28;20232;-85
2021/04/05 10:13:23;;;;;;;0.97;0.70;;;3.90;99.90;;;;;;4968629;28;20194;-85
2021/04/05 10:15:55;;;;;;;0.83;0.83;;;4.00;99.90;;;;;;5003944;28;20242;-86
2021/04/05 10:18:22;;;;;;;0.30;0.30;;;4.10;99.90;;;;;;4985558;28;20310;-85
2021/04/05 10:20:50;;;;;;;0.40;0.33;;;3.90;99.90;;;;;;5002921;28;20261;-86
2021/04/05 10:23:25;;;;;;;2.00;0.90;;;4.00;99.90;;;;;;4961792;28;20318;-86
2021/04/05 10:25:53;;;;;;;0.30;0.30;;;4.70;99.90;;;;;;5003319;28;20237;-85
2021/04/05 10:28:20;;;;;;;0.40;0.40;;;4.90;99.90;;;;;;4985027;28;20279;-86
2021/04/05 10:30:54;;;;;;;0.93;0.87;;;4.90;99.90;;;;;;4985141;28;20672;-85
2021/04/05 10:33:26;;;;;;;0.40;0.40;;;4.70;99.90;;;;;;5001335;28;20223;-86
2021/04/05 10:35:56;;;;;;;1.90;0.70;;;5.20;99.90;;;;;;4983580;28;20227;-85
2021/04/05 10:38:24;;;;;;;0.40;0.40;;;5.50;99.90;;;;;;5000069;28;20218;-85
2021/04/05 10:40:52;;;;;;;0.60;0.60;;;4.50;99.90;;;;;;5002637;28;20271;-86
2021/04/05 10:43:35;;;;;;;6.50;2.30;;;2.40;99.90;;;;;;4985136;28;20233;-84
2021/04/05 10:46:19;;;;;;;0.50;0.50;;;2.10;99.90;;;;;;4985758;28;20175;-85
2021/04/05 10:48:59;;;;;;;1.87;0.40;;;2.20;99.90;;;;;;4985349;28;20215;-86
2021/04/05 10:51:37;;;;;;;2.00;0.70;;;3.20;99.90;;;;;;4984512;28;20211;-84
2021/04/05 10:54:07;;;;;;;1.67;1.57;;;4.20;99.90;;;;;;4964196;28;20276;-85
2021/04/05 10:56:39;;;;;;;8.20;0.50;;;5.00;99.90;;;;;;4984178;28;20349;-85
2021/04/05 10:59:32;;;;;;;3.93;0.80;;;5.10;99.90;;;;;;4984479;28;20575;-85
2021/04/05 11:02:05;;;;;;;0.63;0.63;;;5.00;99.90;;;;;;4998984;28;20377;-86
2021/04/05 11:04:33;;;;;;;0.50;0.50;;;5.20;99.90;;;;;;4994502;28;20179;-86
2021/04/05 11:07:01;;;;;;;1.30;0.63;;;5.30;99.90;;;;;;4984718;28;20277;-85
2021/04/05 11:09:29;;;;;;;1.37;0.80;;;5.40;99.90;;;;;;4980104;28;20305;-85
2021/04/05 11:11:55;;;;;;;0.30;0.30;;;5.40;99.90;;;;;;4966941;28;20219;-85
2021/04/05 11:14:24;;;;;;;1.40;1.03;;;5.40;99.90;;;;;;4984945;28;20219;-85
2021/04/05 11:16:55;;;;;;;0.63;0.63;;;5.40;99.90;;;;;;4984798;28;20295;-85
2021/04/05 11:19:34;;;;;;;2.97;0.60;;;5.20;99.90;;;;;;5001066;28;20184;-86
2021/04/05 11:22:00;;;;;;;1.27;1.23;;;5.10;99.90;;;;;;4986252;28;20215;-85
2021/04/05 11:24:37;;;;;;;0.70;0.60;;;4.80;99.90;;;;;;4969027;28;20221;-87
2021/04/05 11:27:06;;;;;;;0.63;0.63;;;4.80;99.90;;;;;;5000684;28;20227;-85
2021/04/05 11:29:34;;;;;;;0.20;0.20;;;5.30;99.90;;;;;;5001575;28;20218;-86
2021/04/05 11:32:02;;;;;;;0.53;0.53;;;4.80;99.90;;;;;;4981532;28;20306;-86
2021/04/05 11:34:37;;;;;;;2.63;1.77;;;4.80;99.90;;;;;;5001146;28;20209;-86
2021/04/05 11:37:04;;;;;;;0.73;0.63;;;4.00;99.90;;;;;;5003228;28;20214;-86
2021/04/05 11:39:33;;;;;;;1.00;0.30;;;3.80;99.90;;;;;;4967472;28;20759;-86
2021/04/05 11:42:03;;;;;;;2.53;0.73;;;3.60;99.90;;;;;;4993049;28;20757;-84
2021/04/05 11:44:49;;;;;;;0.60;0.60;;;3.70;99.90;;;;;;4980091;28;20227;-84
2021/04/05 11:47:18;;;;;;;0.73;0.73;;;4.00;99.90;;;;;;4979540;28;20238;-85
2021/04/05 11:49:44;;;;;;;5.00;0.87;;;3.50;99.90;;;;;;4979398;28;20222;-85
2021/04/05 11:52:32;;;;;;;0.30;0.30;;;3.60;99.90;;;;;;4992522;28;20919;-84
2021/04/05 11:55:06;;;;;;;3.90;2.63;;;4.20;99.90;;;;;;4983223;28;20318;-84
2021/04/05 11:57:54;;;;;;;0.50;0.50;;;4.80;99.90;;;;;;5002397;28;20260;-86
2021/04/05 12:00:27;;;;;;;0.93;0.93;;;4.90;99.90;;;;;;4982531;28;20215;-86
2021/04/05 12:03:21;;;;;;;0.30;0.30;;;5.20;99.90;;;;;;4992584;28;20718;-86
2021/04/05 12:06:10;;;;;;;0.40;0.40;;;5.10;99.90;;;;;;4992167;28;20223;-86
2021/04/05 12:08:58;;;;;;;0.50;0.40;;;5.10;99.90;;;;;;5000789;28;20211;-86
2021/04/05 12:11:31;;;;;;;0.60;0.57;;;4.70;99.90;;;;;;4982939;28;20754;-85
2021/04/05 12:14:08;;;;;;;2.13;0.40;;;4.80;99.90;;;;;;4984746;28;20258;-83
2021/04/05 12:16:35;;;;;;;2.73;0.90;;;4.80;99.90;;;;;;5004017;28;20242;-85
2021/04/05 12:19:02;;;;;;;2.53;0.50;;;5.00;99.90;;;;;;4988536;28;20176;-85
2021/04/05 12:21:31;;;;;;;0.73;0.40;;;5.20;99.90;;;;;;5006182;28;20238;-83
2021/04/05 12:23:59;;;;;;;0.60;0.60;;;5.60;99.90;;;;;;5005971;28;20273;-83
2021/04/05 12:26:33;;;;;;;0.43;0.43;;;4.80;99.90;;;;;;5002510;28;20251;-84
2021/04/05 12:29:09;;;;;;;1.03;0.80;;;5.50;99.90;;;;;;4986150;28;20269;-83
2021/04/05 12:31:37;;;;;;;0.40;0.40;;;5.50;99.90;;;;;;4982683;28;20971;-85
2021/04/05 12:34:14;;;;;;;0.20;0.20;;;4.10;99.90;;;;;;4969580;28;20863;-85
2021/04/05 12:36:41;;;;;;;0.47;0.47;;;3.30;99.90;;;;;;5003377;28;20298;-83
2021/04/05 12:39:12;;;;;;;0.30;0.30;;;3.30;99.90;;;;;;5004309;28;20239;-85
2021/04/05 12:41:41;;;;;;;0.20;0.20;;;2.90;99.90;;;;;;5005666;28;20231;-84
2021/04/05 12:44:26;;;;;;;0.40;0.40;;;3.00;99.90;;;;;;4996357;28;20227;-85
2021/04/05 12:46:54;;;;;;;0.30;0.30;;;3.10;99.90;;;;;;5005267;28;20234;-84
2021/04/05 12:49:33;;;;;;;0.30;0.30;;;3.30;99.90;;;;;;5004461;28;20298;-86
2021/04/05 12:52:09;;;;;;;0.20;0.20;;;3.50;99.90;;;;;;4988275;28;20194;-86
2021/04/05 12:54:43;;;;;;;0.30;0.30;;;3.70;99.90;;;;;;5003899;28;20222;-85
2021/04/05 12:57:10;;;;;;;0.30;0.30;;;3.80;99.90;;;;;;4985862;28;20230;-85
2021/04/05 12:59:38;;;;;;;0.33;0.33;;;3.40;99.90;;;;;;4986568;28;20211;-85
2021/04/05 13:02:16;;;;;;;0.47;0.40;;;2.90;99.90;;;;;;4983868;28;20305;-85
2021/04/05 13:05:10;;;;;;;0.30;0.30;;;2.70;99.90;;;;;;5004469;28;20602;-85
2021/04/05 13:07:47;;;;;;;0.80;0.80;;;3.00;99.90;;;;;;5004278;28;20223;-86
2021/04/05 13:10:42;;;;;;;0.40;0.40;;;3.40;99.90;;;;;;4987708;28;20249;-86
2021/04/05 13:13:14;;;;;;;0.30;0.30;;;3.50;99.90;;;;;;4985929;28;20219;-85
2021/04/05 13:15:45;;;;;;;0.50;0.50;;;3.40;99.90;;;;;;5004189;28;20231;-87
2021/04/05 13:18:26;;;;;;;1.10;0.43;;;3.10;99.90;;;;;;5003439;28;20239;-86
2021/04/05 13:21:02;;;;;;;0.70;0.70;;;3.20;99.90;;;;;;5001816;28;20215;-86
2021/04/05 13:23:31;;;;;;;0.50;0.50;;;3.50;99.90;;;;;;5004019;28;20238;-86
2021/04/05 13:26:04;;;;;;;0.80;0.37;;;4.10;99.90;;;;;;4982191;28;20235;-85
2021/04/05 13:28:30;;;;;;;0.30;0.30;;;4.60;99.90;;;;;;4999698;28;20197;-84
2021/04/05 13:31:06;;;;;;;0.47;0.47;;;5.20;99.90;;;;;;4970612;28;20191;-85
2021/04/05 13:33:34;;;;;;;0.30;0.30;;;5.20;99.90;;;;;;5001339;28;20745;-85
2021/04/05 13:36:10;;;;;;;0.97;0.50;;;5.40;99.90;;;;;;4986256;28;20231;-85